createdAt,value
2023-02-24T00:01:54.479Z,15.25
2023-02-24T00:04:22.758Z,15.27
2023-02-24T00:06:50.829Z,20.10
2023-02-24T00:09:22.865Z,23.92
2023-02-24T00:11:55.596Z,23.05
2023-02-24T00:14:24.760Z,30.05
2023-02-24T00:16:55.128Z,22.95
2023-02-24T00:19:24.812Z,21.52
2023-02-24T00:21:54.381Z,19.30
2023-02-24T00:24:24.114Z,23.33
2023-02-24T00:26:55.380Z,21.20
2023-02-24T00:29:25.310Z,16.90
2023-02-24T00:31:59.304Z,21.15
2023-02-24T00:34:27.748Z,19.65
2023-02-24T00:36:58.037Z,20.12
2023-02-24T00:39:33.581Z,23.90
2023-02-24T00:42:05.719Z,22.30
2023-02-24T00:44:34.885Z,26.05
2023-02-24T00:47:05.828Z,25.45
2023-02-24T00:49:36.566Z,26.37
2023-02-24T00:52:06.598Z,18.55
2023-02-24T00:54:37.946Z,26.33
2023-02-24T00:57:08.251Z,22.45
2023-02-24T00:59:38.233Z,27.40
2023-02-24T01:02:07.834Z,24.45
2023-02-24T01:04:37.786Z,25.65
2023-02-24T01:07:10.839Z,23.45
2023-02-24T01:09:42.782Z,23.75
2023-02-24T01:12:30.062Z,24.67
2023-02-24T01:14:58.453Z,29.25
2023-02-24T01:17:26.552Z,20.50
2023-02-24T01:19:55.131Z,24.42
2023-02-24T01:22:23.910Z,22.27
2023-02-24T01:24:53.597Z,18.33
2023-02-24T01:27:21.608Z,12.07
2023-02-24T01:29:50.208Z,8.75
2023-02-24T01:32:20.742Z,10.82
2023-02-24T01:34:52.775Z,11.50
2023-02-24T01:37:21.370Z,9.25
2023-02-24T01:39:50.158Z,5.60
2023-02-24T01:42:21.701Z,8.23
2023-02-24T01:45:12.629Z,7.93
2023-02-24T01:47:42.030Z,11.32
2023-02-24T01:50:15.278Z,5.85
2023-02-24T01:52:47.797Z,2.03
2023-02-24T01:55:22.530Z,7.05
2023-02-24T01:57:55.292Z,7.87
2023-02-24T02:00:37.783Z,4.50
2023-02-24T02:03:12.991Z,11.73
2023-02-24T02:05:42.721Z,12.15
2023-02-24T02:08:12.950Z,6.65
2023-02-24T02:10:44.389Z,7.53
2023-02-24T02:13:20.506Z,12.60
2023-02-24T02:16:06.975Z,8.90
2023-02-24T02:18:48.630Z,6.00
2023-02-24T02:21:55.195Z,5.37
2023-02-24T02:24:43.684Z,9.80
2023-02-24T02:27:34.647Z,9.20
2023-02-24T02:30:23.862Z,6.22
2023-02-24T02:33:21.626Z,9.55
2023-02-24T02:36:00.726Z,13.48
2023-02-24T02:38:37.213Z,9.25
2023-02-24T02:41:12.682Z,10.35
2023-02-24T02:43:48.991Z,11.02
2023-02-24T02:46:33.914Z,10.20
2023-02-24T02:49:07.858Z,9.02
2023-02-24T02:51:41.767Z,10.05
2023-02-24T02:54:17.126Z,11.00
2023-02-24T02:56:50.843Z,4.87
2023-02-24T02:59:23.707Z,7.28
2023-02-24T03:01:55.490Z,5.80
2023-02-24T03:04:26.546Z,16.23
2023-02-24T03:07:01.486Z,10.30
2023-02-24T03:09:35.045Z,1.58
2023-02-24T03:12:08.386Z,11.05
2023-02-24T03:14:40.820Z,9.45
2023-02-24T03:17:16.314Z,6.60
2023-02-24T03:19:49.938Z,10.60
2023-02-24T03:22:27.132Z,6.80
2023-02-24T03:24:55.560Z,7.47
2023-02-24T03:27:29.141Z,10.05
2023-02-24T03:30:06.030Z,7.03
2023-02-24T03:32:43.925Z,9.57
2023-02-24T03:35:16.993Z,13.85
2023-02-24T03:37:48.197Z,8.85
2023-02-24T03:40:21.267Z,5.60
2023-02-24T03:42:53.727Z,6.68
2023-02-24T03:45:23.254Z,5.78
2023-02-24T03:47:54.165Z,9.35
2023-02-24T03:50:23.083Z,8.77
2023-02-24T03:53:02.872Z,7.57
2023-02-24T03:55:43.046Z,5.37
2023-02-24T03:58:19.642Z,9.55
2023-02-24T04:00:56.078Z,5.87
2023-02-24T04:03:32.058Z,7.35
2023-02-24T04:06:14.888Z,9.55
2023-02-24T04:08:52.185Z,7.82
2023-02-24T04:11:26.430Z,5.53
2023-02-24T04:14:02.980Z,6.65
2023-02-24T04:16:40.099Z,8.23
2023-02-24T04:19:14.100Z,1.70
2023-02-24T04:21:45.150Z,6.10
2023-02-24T04:24:22.179Z,6.53
2023-02-24T04:26:52.544Z,6.90
2023-02-24T04:29:24.674Z,8.05
2023-02-24T04:31:57.708Z,4.25
2023-02-24T04:34:29.547Z,5.87
2023-02-24T04:36:59.330Z,7.97
2023-02-24T04:39:30.923Z,2.90
2023-02-24T04:42:03.798Z,5.68
2023-02-24T04:44:32.888Z,5.37
2023-02-24T04:47:01.594Z,11.57
2023-02-24T04:49:29.587Z,8.13
2023-02-24T04:51:58.480Z,8.20
2023-02-24T04:54:28.003Z,13.95
2023-02-24T04:56:59.180Z,10.43
2023-02-24T04:59:28.636Z,7.22
2023-02-24T05:02:01.397Z,10.25
2023-02-24T05:04:31.854Z,11.18
2023-02-24T05:07:00.423Z,9.88
2023-02-24T05:09:30.250Z,8.43
2023-02-24T05:12:00.385Z,8.07
2023-02-24T05:14:28.875Z,3.60
2023-02-24T05:17:00.491Z,11.55
2023-02-24T05:19:47.425Z,5.62
2023-02-24T05:22:17.551Z,2.17
2023-02-24T05:24:47.927Z,4.57
2023-02-24T05:27:17.472Z,3.47
2023-02-24T05:29:46.011Z,5.93
2023-02-24T05:32:16.321Z,10.43
2023-02-24T05:34:44.506Z,5.72
2023-02-24T05:37:12.688Z,5.20
2023-02-24T05:39:41.068Z,7.55
2023-02-24T05:42:09.586Z,5.75
2023-02-24T05:44:39.140Z,3.85
2023-02-24T05:47:07.117Z,9.77
2023-02-24T05:49:36.216Z,7.40
2023-02-24T05:52:08.969Z,5.55
2023-02-24T05:54:39.946Z,4.57
2023-02-24T05:57:11.604Z,5.97
2023-02-24T05:59:41.518Z,9.27
2023-02-24T06:02:12.362Z,7.32
2023-02-24T06:04:50.975Z,7.62
2023-02-24T06:07:22.778Z,5.05
2023-02-24T06:09:53.929Z,2.85
2023-02-24T06:12:23.842Z,3.22
2023-02-24T06:14:55.851Z,6.70
2023-02-24T06:17:24.691Z,9.77
2023-02-24T06:19:54.294Z,6.15
2023-02-24T06:22:24.598Z,8.23
2023-02-24T06:24:54.333Z,9.57
2023-02-24T06:27:24.863Z,4.95
2023-02-24T06:29:57.644Z,2.85
2023-02-24T06:32:28.066Z,10.15
2023-02-24T06:34:57.441Z,4.72
2023-02-24T06:37:25.782Z,7.47
2023-02-24T06:39:53.842Z,11.23
2023-02-24T06:42:22.466Z,9.23
2023-02-24T06:44:50.468Z,7.95
2023-02-24T06:47:19.851Z,14.85
2023-02-24T06:49:48.645Z,10.00
2023-02-24T06:52:19.050Z,4.53
2023-02-24T06:54:49.408Z,6.18
2023-02-24T06:57:17.700Z,12.50
2023-02-24T06:59:46.191Z,4.72
2023-02-24T07:02:14.721Z,14.45
2023-02-24T07:04:44.718Z,12.15
2023-02-24T07:07:14.473Z,9.60
2023-02-24T07:09:45.444Z,11.77
2023-02-24T07:12:13.686Z,5.25
2023-02-24T07:14:41.766Z,6.37
2023-02-24T07:17:10.402Z,4.37
2023-02-24T07:19:38.450Z,8.68
2023-02-24T07:22:09.597Z,7.32
2023-02-24T07:24:40.619Z,6.57
2023-02-24T07:27:13.150Z,4.10
2023-02-24T07:29:41.423Z,4.97
2023-02-24T07:32:10.202Z,12.63
2023-02-24T07:34:40.442Z,5.53
2023-02-24T07:37:12.349Z,5.32
2023-02-24T07:39:43.032Z,5.10
2023-02-24T07:42:13.807Z,5.75
2023-02-24T07:44:44.560Z,4.53
2023-02-24T07:47:12.960Z,8.32
2023-02-24T07:49:41.327Z,9.80
2023-02-24T07:52:11.670Z,5.40
2023-02-24T07:54:40.141Z,7.62
2023-02-24T07:57:13.771Z,7.22
2023-02-24T07:59:47.201Z,5.60
2023-02-24T08:02:15.611Z,7.10
2023-02-24T08:04:50.082Z,6.65
2023-02-24T08:07:25.047Z,14.18
2023-02-24T08:10:24.253Z,11.10
2023-02-24T08:12:55.903Z,6.47
2023-02-24T08:15:26.358Z,4.87
2023-02-24T08:17:59.540Z,6.93
2023-02-24T08:20:30.000Z,8.57
2023-02-24T08:22:59.620Z,6.80
2023-02-24T08:25:35.745Z,5.57
2023-02-24T08:28:08.866Z,7.85
2023-02-24T08:30:39.860Z,11.85
2023-02-24T08:33:10.000Z,12.27
2023-02-24T08:35:44.998Z,12.07
2023-02-24T08:38:17.418Z,8.35
2023-02-24T08:40:54.971Z,8.60
2023-02-24T08:43:33.049Z,5.78
2023-02-24T08:46:12.538Z,4.55
2023-02-24T08:48:43.155Z,4.25
2023-02-24T08:51:17.683Z,3.60
2023-02-24T08:53:47.552Z,5.60
2023-02-24T08:56:24.279Z,5.03
2023-02-24T08:58:57.675Z,2.08
2023-02-24T09:01:34.555Z,5.82
2023-02-24T09:04:04.731Z,3.70
2023-02-24T09:06:40.090Z,3.85
2023-02-24T09:09:22.670Z,3.92
2023-02-24T09:11:56.140Z,5.45
2023-02-24T09:14:28.736Z,3.10
2023-02-24T09:17:07.690Z,3.12
2023-02-24T09:19:58.420Z,3.53
2023-02-24T09:22:40.943Z,2.78
2023-02-24T09:25:19.237Z,7.53
2023-02-24T09:27:52.413Z,4.40
2023-02-24T09:30:39.002Z,5.18
2023-02-24T09:33:18.629Z,1.62
2023-02-24T09:35:48.552Z,4.97
2023-02-24T09:38:17.862Z,3.83
2023-02-24T09:40:52.389Z,4.15
2023-02-24T09:43:24.559Z,4.22
2023-02-24T09:45:58.616Z,3.37
2023-02-24T09:48:43.964Z,4.62
2023-02-24T09:51:22.764Z,5.32
2023-02-24T09:53:54.447Z,4.43
2023-02-24T09:56:29.831Z,4.00
2023-02-24T09:59:10.319Z,5.45
2023-02-24T10:01:45.133Z,2.83
2023-02-24T10:04:35.794Z,4.68
2023-02-24T10:07:07.793Z,6.10
2023-02-24T10:09:42.107Z,3.75
2023-02-24T10:12:18.069Z,5.55
2023-02-24T10:14:52.975Z,3.70
2023-02-24T10:17:23.948Z,4.85
2023-02-24T10:20:00.139Z,3.75
2023-02-24T10:22:39.837Z,3.20
2023-02-24T10:25:24.434Z,2.03
2023-02-24T10:28:04.800Z,2.60
2023-02-24T10:30:47.152Z,5.07
2023-02-24T10:33:26.291Z,5.32
2023-02-24T10:36:09.248Z,6.07
2023-02-24T10:38:38.229Z,3.50
2023-02-24T10:41:32.263Z,6.65
2023-02-24T10:44:08.739Z,5.30
2023-02-24T10:46:49.435Z,3.20
2023-02-24T10:49:18.819Z,5.82
2023-02-24T10:51:52.936Z,4.93
2023-02-24T10:55:05.090Z,5.20
2023-02-24T10:57:44.720Z,4.45
2023-02-24T11:00:32.619Z,2.03
2023-02-24T11:03:10.333Z,6.97
2023-02-24T11:05:44.416Z,2.17
2023-02-24T11:08:36.358Z,4.72
2023-02-24T11:11:20.161Z,3.62
2023-02-24T11:14:08.905Z,5.25
2023-02-24T11:17:07.774Z,1.27
2023-02-24T11:19:42.840Z,8.57
2023-02-24T11:22:15.903Z,4.15
2023-02-24T11:24:46.171Z,2.70
2023-02-24T11:27:17.347Z,2.92
2023-02-24T11:30:08.587Z,11.95
2023-02-24T11:33:02.591Z,3.42
2023-02-24T11:35:38.090Z,2.33
2023-02-24T11:38:18.220Z,2.00
2023-02-24T11:40:53.448Z,6.10
2023-02-24T11:43:28.219Z,6.82
2023-02-24T11:46:02.999Z,8.45
2023-02-24T11:48:37.496Z,3.12
2023-02-24T11:51:10.324Z,5.05
2023-02-24T11:53:43.962Z,11.40
2023-02-24T11:56:17.979Z,8.48
2023-02-24T11:58:52.048Z,7.95
2023-02-24T12:01:26.888Z,2.17
2023-02-24T12:04:06.371Z,3.05
2023-02-24T12:06:40.615Z,5.43
2023-02-24T12:09:14.176Z,1.12
2023-02-24T12:11:51.308Z,6.45
2023-02-24T12:14:26.838Z,3.42
2023-02-24T12:17:03.362Z,2.87
2023-02-24T12:19:39.329Z,3.12
2023-02-24T12:22:15.153Z,3.62
2023-02-24T12:24:49.868Z,6.75
2023-02-24T12:27:33.033Z,9.45
2023-02-24T12:30:34.126Z,7.93
2023-02-24T12:33:13.923Z,2.12
2023-02-24T12:35:48.359Z,3.15
2023-02-24T12:38:45.970Z,5.07
2023-02-24T12:41:46.439Z,4.28
2023-02-24T12:44:27.159Z,3.00
2023-02-24T12:47:03.951Z,3.20
2023-02-24T12:49:49.099Z,2.17
2023-02-24T12:52:25.011Z,4.22
2023-02-24T12:55:01.730Z,4.07
2023-02-24T12:57:39.423Z,2.17
2023-02-24T13:00:14.131Z,2.83
2023-02-24T13:02:53.346Z,3.45
2023-02-24T13:05:28.833Z,5.07
2023-02-24T13:08:19.616Z,4.65
2023-02-24T13:10:51.827Z,9.75
2023-02-24T13:13:27.384Z,2.35
2023-02-24T13:15:57.582Z,1.87
2023-02-24T13:18:28.105Z,4.85
2023-02-24T13:21:05.326Z,3.17
2023-02-24T13:23:35.603Z,6.78
2023-02-24T13:26:04.504Z,2.75
2023-02-24T13:28:36.096Z,2.00
2023-02-24T13:31:06.776Z,1.90
2023-02-24T13:33:36.280Z,2.17
2023-02-24T13:36:14.816Z,4.03
2023-02-24T13:38:46.069Z,3.53
2023-02-24T13:41:41.585Z,5.10
2023-02-24T13:44:28.089Z,2.35
2023-02-24T13:47:42.948Z,3.70
2023-02-24T13:50:25.172Z,5.35
2023-02-24T13:53:24.652Z,3.37
2023-02-24T13:56:10.626Z,8.15
2023-02-24T13:58:50.795Z,2.78
2023-02-24T14:01:20.879Z,1.50
2023-02-24T14:04:12.790Z,2.65
2023-02-24T14:06:43.372Z,1.10
2023-02-24T14:09:17.452Z,1.70
2023-02-24T14:11:46.864Z,1.83
2023-02-24T14:14:18.006Z,2.30
2023-02-24T14:16:50.487Z,0.43
2023-02-24T14:19:19.231Z,2.45
2023-02-24T14:21:50.426Z,2.03
2023-02-24T14:24:20.052Z,1.33
2023-02-24T14:26:51.969Z,3.37
2023-02-24T14:29:22.865Z,1.30
2023-02-24T14:31:53.290Z,1.40
2023-02-24T14:34:24.531Z,1.60
2023-02-24T14:36:55.118Z,1.83
2023-02-24T14:39:25.072Z,2.37
2023-02-24T14:42:11.360Z,0.90
2023-02-24T14:44:42.905Z,1.10
2023-02-24T14:47:14.363Z,1.15
2023-02-24T14:49:52.265Z,1.55
2023-02-24T14:52:28.930Z,2.40
2023-02-24T14:55:01.626Z,3.40
2023-02-24T14:57:35.222Z,2.65
2023-02-24T15:00:11.514Z,4.32
2023-02-24T15:02:45.464Z,3.92
2023-02-24T15:05:14.041Z,3.78
2023-02-24T15:07:45.377Z,2.42
2023-02-24T15:10:22.352Z,3.45
2023-02-24T15:12:55.156Z,2.92
2023-02-24T15:15:26.978Z,3.40
2023-02-24T15:17:57.391Z,4.60
2023-02-24T15:20:28.849Z,1.83
2023-02-24T15:22:58.871Z,2.25
2023-02-24T15:25:41.899Z,2.80
2023-02-24T15:28:25.953Z,2.85
2023-02-24T15:31:01.444Z,2.75
2023-02-24T15:33:35.185Z,3.40
2023-02-24T15:36:08.076Z,1.15
2023-02-24T15:38:39.223Z,3.25
2023-02-24T15:41:09.242Z,3.15
2023-02-24T15:43:40.012Z,2.05
2023-02-24T15:46:17.167Z,1.48
2023-02-24T15:48:46.931Z,4.60
2023-02-24T15:51:22.962Z,3.35
2023-02-24T15:53:51.174Z,2.90
2023-02-24T15:56:19.654Z,2.28
2023-02-24T15:58:49.220Z,2.58
2023-02-24T16:01:17.301Z,2.62
2023-02-24T16:03:45.712Z,2.67
2023-02-24T16:06:21.247Z,1.65
2023-02-24T16:08:52.728Z,1.10
2023-02-24T16:11:24.328Z,3.10
2023-02-24T16:13:58.033Z,1.37
2023-02-24T16:16:27.431Z,1.30
2023-02-24T16:18:56.775Z,2.78
2023-02-24T16:21:24.864Z,1.00
2023-02-24T16:23:52.831Z,1.75
2023-02-24T16:26:24.032Z,1.77
2023-02-24T16:28:56.212Z,1.73
2023-02-24T16:31:25.654Z,1.30
2023-02-24T16:33:55.685Z,1.35
2023-02-24T16:36:26.217Z,1.45
2023-02-24T16:38:54.361Z,4.18
2023-02-24T16:41:23.360Z,1.73
2023-02-24T16:43:52.364Z,1.42
2023-02-24T16:46:23.750Z,1.05
2023-02-24T16:48:53.946Z,2.62
2023-02-24T16:51:23.050Z,1.50
2023-02-24T16:53:51.033Z,1.55
2023-02-24T16:56:19.616Z,2.15
2023-02-24T16:58:47.841Z,2.03
2023-02-24T17:01:20.659Z,1.92
2023-02-24T17:03:53.016Z,2.42
2023-02-24T17:06:22.547Z,2.15
2023-02-24T17:08:52.200Z,1.52
2023-02-24T17:11:22.161Z,1.65
2023-02-24T17:13:50.216Z,2.95
2023-02-24T17:16:18.673Z,2.72
2023-02-24T17:18:46.801Z,1.23
2023-02-24T17:21:18.321Z,2.03
2023-02-24T17:23:49.424Z,2.62
2023-02-24T17:26:17.555Z,3.55
2023-02-24T17:28:45.573Z,2.55
2023-02-24T17:31:13.983Z,2.67
2023-02-24T17:33:42.171Z,3.05
2023-02-24T17:36:10.443Z,2.35
2023-02-24T17:38:40.063Z,2.40
2023-02-24T17:41:08.056Z,1.80
2023-02-24T17:43:35.987Z,2.92
2023-02-24T17:46:07.126Z,1.67
2023-02-24T17:48:36.117Z,2.45
2023-02-24T17:51:04.610Z,2.37
2023-02-24T17:53:32.728Z,3.70
2023-02-24T17:56:07.082Z,4.90
2023-02-24T17:58:35.723Z,3.03
2023-02-24T18:01:06.067Z,2.72
2023-02-24T18:03:35.488Z,2.92
2023-02-24T18:06:08.476Z,5.35
2023-02-24T18:08:38.761Z,2.40
2023-02-24T18:11:09.929Z,2.95
2023-02-24T18:13:38.219Z,2.87
2023-02-24T18:16:09.698Z,2.60
2023-02-24T18:18:38.157Z,2.97
2023-02-24T18:21:08.718Z,1.80
2023-02-24T18:23:38.260Z,4.72
2023-02-24T18:26:10.334Z,2.87
2023-02-24T18:28:38.297Z,4.72
2023-02-24T18:31:16.209Z,4.50
2023-02-24T18:33:44.495Z,3.50
2023-02-24T18:36:13.720Z,3.22
2023-02-24T18:38:42.540Z,4.20
2023-02-24T18:41:15.609Z,5.00
2023-02-24T18:43:43.999Z,2.67
2023-02-24T18:46:14.261Z,4.45
2023-02-24T18:48:44.566Z,5.93
2023-02-24T18:51:13.678Z,3.55
2023-02-24T18:53:42.254Z,3.83
2023-02-24T18:56:18.198Z,3.97
2023-02-24T18:58:47.357Z,5.12
2023-02-24T19:01:19.756Z,3.53
2023-02-24T19:03:48.902Z,4.70
2023-02-24T19:06:19.185Z,7.40
2023-02-24T19:08:48.960Z,5.97
2023-02-24T19:11:19.929Z,4.50
2023-02-24T19:13:48.842Z,5.75
2023-02-24T19:16:18.218Z,7.15
2023-02-24T19:18:48.001Z,5.50
2023-02-24T19:21:16.243Z,5.60
2023-02-24T19:23:44.312Z,5.65
2023-02-24T19:26:19.225Z,6.35
2023-02-24T19:28:47.560Z,4.43
2023-02-24T19:31:16.994Z,3.83
2023-02-24T19:33:45.556Z,4.80
2023-02-24T19:36:13.966Z,6.03
2023-02-24T19:38:42.947Z,7.15
2023-02-24T19:41:11.909Z,5.65
2023-02-24T19:43:44.776Z,7.05
2023-02-24T19:46:15.796Z,9.25
2023-02-24T19:48:44.617Z,4.50
2023-02-24T19:51:14.654Z,5.05
2023-02-24T19:53:42.629Z,5.75
2023-02-24T19:56:11.121Z,5.05
2023-02-24T19:58:39.290Z,5.18
2023-02-24T20:01:11.503Z,7.07
2023-02-24T20:03:41.391Z,3.58
2023-02-24T20:06:18.117Z,5.72
2023-02-24T20:08:46.383Z,7.12
2023-02-24T20:11:15.065Z,4.65
2023-02-24T20:13:43.252Z,7.10
2023-02-24T20:16:16.679Z,5.57
2023-02-24T20:18:45.599Z,5.20
2023-02-24T20:21:14.533Z,5.37
2023-02-24T20:23:43.691Z,6.00
2023-02-24T20:26:14.011Z,4.47
2023-02-24T20:28:42.214Z,6.93
2023-02-24T20:31:15.201Z,6.55
2023-02-24T20:33:44.630Z,7.65
2023-02-24T20:36:15.752Z,8.13
2023-02-24T20:38:44.144Z,8.82
2023-02-24T20:41:12.641Z,7.72
2023-02-24T20:43:40.896Z,10.38
2023-02-24T20:46:16.715Z,6.65
2023-02-24T20:48:45.548Z,9.93
2023-02-24T20:51:13.831Z,7.18
2023-02-24T20:53:55.921Z,7.57
2023-02-24T20:56:26.583Z,5.80
2023-02-24T20:59:00.401Z,8.70
2023-02-24T21:01:31.693Z,7.05
2023-02-24T21:04:00.787Z,9.07
2023-02-24T21:06:29.853Z,8.98
2023-02-24T21:08:58.012Z,7.82
2023-02-24T21:11:27.015Z,7.35
2023-02-24T21:13:55.502Z,6.78
2023-02-24T21:16:24.526Z,6.28
2023-02-24T21:18:55.824Z,5.87
2023-02-24T21:21:24.457Z,8.63
2023-02-24T21:23:52.591Z,7.00
2023-02-24T21:26:21.043Z,9.00
2023-02-24T21:28:57.467Z,7.18
2023-02-24T21:31:27.494Z,6.00
2023-02-24T21:33:57.629Z,8.80
2023-02-24T21:36:27.962Z,6.72
2023-02-24T21:38:56.522Z,9.43
2023-02-24T21:41:24.993Z,8.15
2023-02-24T21:43:55.516Z,8.23
2023-02-24T21:46:28.130Z,6.70
2023-02-24T21:48:58.981Z,5.78
2023-02-24T21:51:28.337Z,9.52
2023-02-24T21:53:57.096Z,8.85
2023-02-24T21:56:26.702Z,9.77
2023-02-24T21:58:58.726Z,7.87
2023-02-24T22:01:28.479Z,7.53
2023-02-24T22:04:00.226Z,10.13
2023-02-24T22:06:31.660Z,8.80
2023-02-24T22:09:01.181Z,11.07
2023-02-24T22:11:31.894Z,9.27
2023-02-24T22:14:00.299Z,6.12
2023-02-24T22:16:28.510Z,5.65
2023-02-24T22:18:58.403Z,5.15
2023-02-24T22:21:29.235Z,6.37
2023-02-24T22:23:59.372Z,3.70
2023-02-24T22:26:29.298Z,4.90
2023-02-24T22:28:57.708Z,5.75
2023-02-24T22:31:28.240Z,5.82
2023-02-24T22:33:58.619Z,5.75
2023-02-24T22:36:28.933Z,4.32
2023-02-24T22:38:59.157Z,7.20
2023-02-24T22:41:29.621Z,6.43
2023-02-24T22:43:58.318Z,8.13
2023-02-24T22:46:28.801Z,4.87
2023-02-24T22:48:58.603Z,5.00
2023-02-24T22:51:27.650Z,6.12
2023-02-24T22:53:56.528Z,6.22
2023-02-24T22:56:26.684Z,5.68
2023-02-24T22:58:55.379Z,3.85
2023-02-24T23:01:26.642Z,5.75
2023-02-24T23:03:55.535Z,6.82
2023-02-24T23:06:26.686Z,4.62
2023-02-24T23:08:55.695Z,6.30
2023-02-24T23:11:27.652Z,7.62
2023-02-24T23:13:58.783Z,6.37
2023-02-24T23:16:29.412Z,5.95
2023-02-24T23:18:59.256Z,4.72
2023-02-24T23:21:34.680Z,6.55
2023-02-24T23:24:04.151Z,7.05
2023-02-24T23:26:33.265Z,7.55
2023-02-24T23:29:01.455Z,6.18
2023-02-24T23:31:30.078Z,4.82
2023-02-24T23:33:58.151Z,4.25
2023-02-24T23:36:27.687Z,6.95
2023-02-24T23:38:57.999Z,5.30
2023-02-24T23:41:26.124Z,5.43
2023-02-24T23:43:54.243Z,5.57
2023-02-24T23:46:22.957Z,5.55
2023-02-24T23:48:54.753Z,3.85
2023-02-24T23:51:23.328Z,3.25
2023-02-24T23:53:52.989Z,5.07
2023-02-24T23:56:23.909Z,5.15
2023-02-24T23:58:53.028Z,3.87
